RYR2WA GCTS-GMAD
Flight info
| Callsign | RYR2WA |
|---|---|
| Flight time | 0h 59m |
| Altitude | 34000 |
| Route | KORAL DCT AMLOK A600 TEKNA |
| Aircraft | B738/M-SDE2E3FGHIRWXY/LB1 |
Departure
| Time | 2026-05-03 23:30 |
|---|---|
| Airport | Tenerife Sur Airport (GCTS) |
Arrival
| Time | 2026-05-04 00:29 |
|---|---|
| Airport | Al Massira Airport (GMAD) |
| Time | Latitude | Longitude | Altitude | Speed | Heading |
|---|---|---|---|---|---|
| 2026-05-03 23:18 | 28.04641 | -16.57898 | 203 ft | 0 kts | 10° |
| 2026-05-03 23:24 | 28.04626 | -16.57901 | 208 ft | 2 kts | 10° |
| 2026-05-03 23:24 | 28.04610 | -16.57904 | 213 ft | 2 kts | 10° |
| 2026-05-03 23:24 | 28.04594 | -16.57908 | 211 ft | 2 kts | 6° |
| 2026-05-03 23:24 | 28.04577 | -16.57906 | 211 ft | 2 kts | 310° |
| 2026-05-03 23:25 | 28.04573 | -16.57897 | 214 ft | 1 kts | 280° |
| 2026-05-03 23:25 | 28.04572 | -16.57896 | 214 ft | 0 kts | 280° |
| 2026-05-03 23:26 | 28.04570 | -16.57914 | 214 ft | 7 kts | 248° |
| 2026-05-03 23:26 | 28.04521 | -16.58003 | 211 ft | 18 kts | 248° |
| 2026-05-03 23:27 | 28.04473 | -16.58141 | 212 ft | 21 kts | 248° |
| 2026-05-03 23:27 | 28.04413 | -16.58312 | 205 ft | 25 kts | 250° |
| 2026-05-03 23:27 | 28.04355 | -16.58493 | 201 ft | 24 kts | 247° |
| 2026-05-03 23:27 | 28.04280 | -16.58568 | 208 ft | 13 kts | 160° |
| 2026-05-03 23:28 | 28.04192 | -16.58560 | 206 ft | 16 kts | 213° |
| 2026-05-03 23:28 | 28.04133 | -16.58704 | 206 ft | 24 kts | 248° |
| 2026-05-03 23:28 | 28.04072 | -16.58856 | 206 ft | 18 kts | 223° |
| 2026-05-03 23:28 | 28.03977 | -16.58815 | 201 ft | 17 kts | 117° |
| 2026-05-03 23:29 | 28.03956 | -16.58681 | 207 ft | 21 kts | 85° |
| 2026-05-03 23:29 | 28.04051 | -16.58382 | 206 ft | 75 kts | 68° |
| 2026-05-03 23:29 | 28.04337 | -16.57570 | 206 ft | 145 kts | 68° |
| 2026-05-03 23:29 | 28.04780 | -16.56346 | 598 ft | 175 kts | 67° |
| 2026-05-03 23:30 | 28.05244 | -16.55051 | 1520 ft | 177 kts | 66° |
| 2026-05-03 23:30 | 28.05682 | -16.53736 | 2486 ft | 181 kts | 67° |
| 2026-05-03 23:30 | 28.06167 | -16.52315 | 2853 ft | 210 kts | 66° |
| 2026-05-03 23:30 | 28.06736 | -16.50680 | 3131 ft | 232 kts | 67° |
| 2026-05-03 23:31 | 28.07336 | -16.48954 | 3720 ft | 242 kts | 67° |
| 2026-05-03 23:31 | 28.07958 | -16.47162 | 4451 ft | 247 kts | 68° |
| 2026-05-03 23:31 | 28.08591 | -16.45270 | 4965 ft | 267 kts | 73° |
| 2026-05-03 23:31 | 28.08886 | -16.43131 | 5686 ft | 278 kts | 84° |
| 2026-05-03 23:32 | 28.09035 | -16.40931 | 6490 ft | 286 kts | 85° |
| 2026-05-03 23:32 | 28.09176 | -16.38645 | 7289 ft | 291 kts | 85° |
| 2026-05-03 23:32 | 28.09320 | -16.36365 | 8117 ft | 295 kts | 85° |
| 2026-05-03 23:32 | 28.09476 | -16.34013 | 8948 ft | 300 kts | 85° |
| 2026-05-03 23:33 | 28.09637 | -16.31650 | 9780 ft | 305 kts | 85° |
| 2026-05-03 23:33 | 28.09806 | -16.29251 | 10491 ft | 313 kts | 85° |
| 2026-05-03 23:33 | 28.09988 | -16.26676 | 10743 ft | 338 kts | 85° |
| 2026-05-03 23:33 | 28.10181 | -16.23991 | 11230 ft | 351 kts | 85° |
| 2026-05-03 23:34 | 28.10381 | -16.21194 | 11950 ft | 357 kts | 85° |
| 2026-05-03 23:34 | 28.10582 | -16.18404 | 12697 ft | 361 kts | 85° |
| 2026-05-03 23:34 | 28.10788 | -16.15532 | 13438 ft | 366 kts | 86° |
| 2026-05-03 23:34 | 28.10994 | -16.12654 | 14123 ft | 372 kts | 86° |
| 2026-05-03 23:35 | 28.11205 | -16.09697 | 14797 ft | 376 kts | 86° |
| 2026-05-03 23:35 | 28.11415 | -16.06747 | 15478 ft | 380 kts | 86° |
| 2026-05-03 23:35 | 28.11629 | -16.03737 | 16162 ft | 384 kts | 86° |
| 2026-05-03 23:35 | 28.11756 | -16.00683 | 16823 ft | 388 kts | 92° |
| 2026-05-03 23:36 | 28.11625 | -15.97629 | 17474 ft | 392 kts | 96° |
| 2026-05-03 23:36 | 28.11382 | -15.94525 | 18134 ft | 396 kts | 97° |
| 2026-05-03 23:36 | 28.11117 | -15.91434 | 18712 ft | 401 kts | 97° |
| 2026-05-03 23:36 | 28.10855 | -15.88263 | 19277 ft | 405 kts | 97° |
| 2026-05-03 23:37 | 28.10609 | -15.85065 | 19849 ft | 409 kts | 97° |
| 2026-05-03 23:37 | 28.10378 | -15.81866 | 20392 ft | 413 kts | 96° |
| 2026-05-03 23:37 | 28.10150 | -15.78587 | 20931 ft | 418 kts | 96° |
| 2026-05-03 23:37 | 28.09926 | -15.75283 | 21467 ft | 422 kts | 96° |
| 2026-05-03 23:38 | 28.09704 | -15.71983 | 21981 ft | 426 kts | 96° |
| 2026-05-03 23:38 | 28.09475 | -15.68596 | 22493 ft | 430 kts | 97° |
| 2026-05-03 23:38 | 28.09322 | -15.66340 | 22845 ft | 433 kts | 97° |
| 2026-05-03 23:38 | 28.09010 | -15.61760 | 23523 ft | 439 kts | 97° |
| 2026-05-03 23:39 | 28.08775 | -15.58315 | 23952 ft | 443 kts | 97° |
| 2026-05-03 23:39 | 28.08537 | -15.54857 | 24395 ft | 445 kts | 97° |
| 2026-05-03 23:39 | 28.08294 | -15.51328 | 24833 ft | 449 kts | 97° |
| 2026-05-03 23:39 | 28.08050 | -15.47809 | 25247 ft | 452 kts | 97° |
| 2026-05-03 23:40 | 28.08065 | -15.44227 | 25622 ft | 460 kts | 82° |
| 2026-05-03 23:40 | 28.08970 | -15.40764 | 25992 ft | 463 kts | 63° |
| 2026-05-03 23:40 | 28.10645 | -15.37636 | 26453 ft | 463 kts | 54° |
| 2026-05-03 23:40 | 28.12480 | -15.34598 | 26852 ft | 466 kts | 53° |
| 2026-05-03 23:41 | 28.14328 | -15.31607 | 27206 ft | 470 kts | 53° |
| 2026-05-03 23:41 | 28.16226 | -15.28539 | 27577 ft | 473 kts | 53° |
| 2026-05-03 23:41 | 28.18089 | -15.25500 | 27970 ft | 476 kts | 53° |
| 2026-05-03 23:41 | 28.19977 | -15.22389 | 28364 ft | 478 kts | 54° |
| 2026-05-03 23:42 | 28.21840 | -15.19293 | 28734 ft | 481 kts | 54° |
| 2026-05-03 23:42 | 28.23734 | -15.16127 | 29109 ft | 484 kts | 54° |
| 2026-05-03 23:42 | 28.25634 | -15.12940 | 29469 ft | 486 kts | 54° |
| 2026-05-03 23:42 | 28.27524 | -15.09761 | 29820 ft | 489 kts | 54° |
| 2026-05-03 23:43 | 28.29422 | -15.06568 | 30227 ft | 490 kts | 54° |
| 2026-05-03 23:43 | 28.31330 | -15.03354 | 30682 ft | 488 kts | 54° |
| 2026-05-03 23:43 | 28.33234 | -15.00147 | 31111 ft | 487 kts | 54° |
| 2026-05-03 23:43 | 28.35110 | -14.96985 | 31475 ft | 487 kts | 53° |
| 2026-05-03 23:44 | 28.37006 | -14.93789 | 31830 ft | 487 kts | 53° |
| 2026-05-03 23:44 | 28.38902 | -14.90592 | 32203 ft | 487 kts | 53° |
| 2026-05-03 23:44 | 28.40777 | -14.87426 | 32591 ft | 486 kts | 53° |
| 2026-05-03 23:44 | 28.42032 | -14.85307 | 32845 ft | 486 kts | 53° |
| 2026-05-03 23:45 | 28.44544 | -14.81061 | 33327 ft | 486 kts | 53° |
| 2026-05-03 23:45 | 28.45798 | -14.78939 | 33594 ft | 485 kts | 53° |
| 2026-05-03 23:45 | 28.48296 | -14.74711 | 34107 ft | 483 kts | 53° |
| 2026-05-03 23:45 | 28.49571 | -14.72551 | 34151 ft | 487 kts | 53° |
| 2026-05-03 23:46 | 28.53346 | -14.66153 | 34130 ft | 488 kts | 53° |
| 2026-05-03 23:46 | 28.57103 | -14.59767 | 34127 ft | 480 kts | 53° |
| 2026-05-03 23:47 | 28.60800 | -14.53479 | 34137 ft | 482 kts | 53° |
| 2026-05-03 23:47 | 28.64546 | -14.47100 | 34141 ft | 483 kts | 53° |
| 2026-05-03 23:48 | 28.68262 | -14.40761 | 34143 ft | 484 kts | 53° |
| 2026-05-03 23:48 | 28.72004 | -14.34367 | 34137 ft | 485 kts | 53° |
| 2026-05-03 23:49 | 28.75748 | -14.27960 | 34134 ft | 485 kts | 53° |
| 2026-05-03 23:49 | 28.79476 | -14.21570 | 34136 ft | 484 kts | 53° |
| 2026-05-03 23:50 | 28.83203 | -14.15173 | 34131 ft | 483 kts | 53° |
| 2026-05-03 23:50 | 28.86928 | -14.08770 | 34134 ft | 482 kts | 53° |
| 2026-05-03 23:51 | 28.90606 | -14.02437 | 34136 ft | 481 kts | 53° |
| 2026-05-03 23:51 | 28.94287 | -13.96090 | 34129 ft | 480 kts | 53° |
| 2026-05-03 23:52 | 28.97977 | -13.89719 | 34126 ft | 479 kts | 53° |
| 2026-05-03 23:52 | 29.01646 | -13.83372 | 34117 ft | 478 kts | 53° |
| 2026-05-03 23:53 | 29.04782 | -13.76696 | 34117 ft | 480 kts | 69° |
| 2026-05-03 23:53 | 29.07056 | -13.69505 | 34115 ft | 481 kts | 69° |
| 2026-05-03 23:54 | 29.09317 | -13.62321 | 34108 ft | 481 kts | 69° |
| 2026-05-03 23:54 | 29.11614 | -13.55131 | 34112 ft | 481 kts | 69° |
| 2026-05-03 23:55 | 29.13930 | -13.47939 | 34120 ft | 482 kts | 69° |
| 2026-05-03 23:55 | 29.16275 | -13.40657 | 34127 ft | 493 kts | 69° |
| 2026-05-03 23:56 | 29.18667 | -13.33207 | 34142 ft | 505 kts | 69° |
| 2026-05-03 23:56 | 29.21104 | -13.25595 | 34136 ft | 516 kts | 69° |
| 2026-05-03 23:57 | 29.23593 | -13.17803 | 34137 ft | 526 kts | 69° |
| 2026-05-03 23:57 | 29.26115 | -13.09885 | 34132 ft | 531 kts | 69° |
| 2026-05-03 23:58 | 29.28643 | -13.01928 | 34125 ft | 532 kts | 69° |
| 2026-05-03 23:58 | 29.31166 | -12.93971 | 34122 ft | 533 kts | 69° |
| 2026-05-03 23:59 | 29.33686 | -12.86007 | 34128 ft | 533 kts | 69° |
| 2026-05-03 23:59 | 29.36207 | -12.78018 | 34124 ft | 532 kts | 69° |
| 2026-05-04 00:00 | 29.38722 | -12.70031 | 34132 ft | 532 kts | 69° |
| 2026-05-04 00:00 | 29.41239 | -12.62018 | 34124 ft | 532 kts | 70° |
| 2026-05-04 00:01 | 29.43728 | -12.54078 | 34134 ft | 532 kts | 70° |
| 2026-05-04 00:01 | 29.46237 | -12.46050 | 34130 ft | 532 kts | 70° |
| 2026-05-04 00:02 | 29.48721 | -12.38086 | 34121 ft | 531 kts | 70° |
| 2026-05-04 00:02 | 29.51203 | -12.30109 | 34125 ft | 531 kts | 70° |
| 2026-05-04 00:03 | 29.53681 | -12.22124 | 34122 ft | 530 kts | 70° |
| 2026-05-04 00:03 | 29.56152 | -12.14144 | 34118 ft | 530 kts | 70° |
| 2026-05-04 00:04 | 29.58614 | -12.06173 | 34118 ft | 530 kts | 70° |
| 2026-05-04 00:04 | 29.61045 | -11.98281 | 34088 ft | 512 kts | 70° |
| 2026-05-04 00:05 | 29.62215 | -11.94474 | 34096 ft | 494 kts | 70° |
| 2026-05-04 00:05 | 29.63340 | -11.90813 | 34098 ft | 484 kts | 70° |
| 2026-05-04 00:05 | 29.64465 | -11.87145 | 33866 ft | 485 kts | 70° |
| 2026-05-04 00:05 | 29.65603 | -11.83436 | 33103 ft | 491 kts | 70° |
| 2026-05-04 00:06 | 29.66728 | -11.79763 | 32535 ft | 490 kts | 70° |
| 2026-05-04 00:06 | 29.67853 | -11.76084 | 31938 ft | 490 kts | 70° |
| 2026-05-04 00:06 | 29.68987 | -11.72373 | 31340 ft | 490 kts | 70° |
| 2026-05-04 00:06 | 29.70111 | -11.68689 | 30739 ft | 490 kts | 70° |
| 2026-05-04 00:07 | 29.71247 | -11.64964 | 30114 ft | 490 kts | 70° |
| 2026-05-04 00:07 | 29.72362 | -11.61300 | 29371 ft | 490 kts | 70° |
| 2026-05-04 00:07 | 29.73493 | -11.57583 | 28775 ft | 487 kts | 70° |
| 2026-05-04 00:07 | 29.74596 | -11.53952 | 28276 ft | 481 kts | 70° |
| 2026-05-04 00:08 | 29.75706 | -11.50291 | 27763 ft | 477 kts | 70° |
| 2026-05-04 00:08 | 29.76790 | -11.46714 | 27272 ft | 472 kts | 70° |
| 2026-05-04 00:08 | 29.77853 | -11.43203 | 26782 ft | 468 kts | 70° |
| 2026-05-04 00:08 | 29.78921 | -11.39671 | 26311 ft | 464 kts | 70° |
| 2026-05-04 00:09 | 29.79981 | -11.36165 | 25825 ft | 460 kts | 70° |
| 2026-05-04 00:09 | 29.81018 | -11.32728 | 25355 ft | 456 kts | 70° |
| 2026-05-04 00:09 | 29.82062 | -11.29266 | 24875 ft | 453 kts | 70° |
| 2026-05-04 00:09 | 29.83086 | -11.25864 | 24409 ft | 450 kts | 70° |
| 2026-05-04 00:10 | 29.84111 | -11.22459 | 23921 ft | 447 kts | 71° |
| 2026-05-04 00:10 | 29.85118 | -11.19107 | 23397 ft | 445 kts | 71° |
| 2026-05-04 00:10 | 29.86130 | -11.15735 | 22873 ft | 441 kts | 71° |
| 2026-05-04 00:10 | 29.87133 | -11.12392 | 22382 ft | 438 kts | 71° |
| 2026-05-04 00:11 | 29.88123 | -11.09087 | 21906 ft | 434 kts | 71° |
| 2026-05-04 00:11 | 29.89098 | -11.05828 | 21440 ft | 430 kts | 71° |
| 2026-05-04 00:11 | 29.90061 | -11.02605 | 20982 ft | 426 kts | 70° |
| 2026-05-04 00:11 | 29.91028 | -10.99369 | 20523 ft | 423 kts | 70° |
| 2026-05-04 00:12 | 29.91973 | -10.96199 | 20073 ft | 420 kts | 70° |
| 2026-05-04 00:12 | 29.92925 | -10.93008 | 19618 ft | 417 kts | 70° |
| 2026-05-04 00:12 | 29.93866 | -10.89845 | 19171 ft | 415 kts | 70° |
| 2026-05-04 00:12 | 29.94802 | -10.86700 | 18696 ft | 413 kts | 70° |
| 2026-05-04 00:13 | 29.95722 | -10.83603 | 18221 ft | 411 kts | 70° |
| 2026-05-04 00:13 | 29.96651 | -10.80474 | 17704 ft | 408 kts | 70° |
| 2026-05-04 00:13 | 29.97562 | -10.77402 | 17261 ft | 405 kts | 70° |
| 2026-05-04 00:13 | 29.98464 | -10.74359 | 16805 ft | 402 kts | 70° |
| 2026-05-04 00:14 | 29.99365 | -10.71313 | 16365 ft | 398 kts | 70° |
| 2026-05-04 00:14 | 30.00262 | -10.68282 | 15920 ft | 395 kts | 70° |
| 2026-05-04 00:14 | 30.01137 | -10.65320 | 15495 ft | 391 kts | 70° |
| 2026-05-04 00:14 | 30.02007 | -10.62373 | 15071 ft | 388 kts | 70° |
| 2026-05-04 00:15 | 30.02880 | -10.59413 | 14642 ft | 385 kts | 70° |
| 2026-05-04 00:15 | 30.03741 | -10.56489 | 14218 ft | 383 kts | 70° |
| 2026-05-04 00:15 | 30.04590 | -10.53607 | 13784 ft | 380 kts | 70° |
| 2026-05-04 00:15 | 30.05444 | -10.50704 | 13308 ft | 378 kts | 70° |
| 2026-05-04 00:16 | 30.06277 | -10.47867 | 12865 ft | 375 kts | 70° |
| 2026-05-04 00:16 | 30.07115 | -10.45011 | 12434 ft | 372 kts | 70° |
| 2026-05-04 00:16 | 30.07946 | -10.42180 | 12018 ft | 369 kts | 70° |
| 2026-05-04 00:16 | 30.08753 | -10.39425 | 11613 ft | 365 kts | 70° |
| 2026-05-04 00:17 | 30.09569 | -10.36637 | 11200 ft | 362 kts | 70° |
| 2026-05-04 00:17 | 30.10374 | -10.33886 | 10799 ft | 359 kts | 70° |
| 2026-05-04 00:17 | 30.11158 | -10.31203 | 10607 ft | 350 kts | 70° |
| 2026-05-04 00:17 | 30.11932 | -10.28553 | 10446 ft | 340 kts | 70° |
| 2026-05-04 00:18 | 30.12679 | -10.25990 | 10307 ft | 331 kts | 70° |
| 2026-05-04 00:18 | 30.13398 | -10.23522 | 10167 ft | 322 kts | 70° |
| 2026-05-04 00:18 | 30.14107 | -10.21088 | 10033 ft | 314 kts | 70° |
| 2026-05-04 00:18 | 30.14787 | -10.18755 | 9767 ft | 310 kts | 70° |
| 2026-05-04 00:19 | 30.15473 | -10.16395 | 9433 ft | 309 kts | 70° |
| 2026-05-04 00:19 | 30.16160 | -10.14035 | 9129 ft | 307 kts | 70° |
| 2026-05-04 00:19 | 30.16829 | -10.11731 | 8834 ft | 304 kts | 69° |
| 2026-05-04 00:19 | 30.17504 | -10.09401 | 8546 ft | 302 kts | 69° |
| 2026-05-04 00:20 | 30.18163 | -10.07126 | 8258 ft | 300 kts | 69° |
| 2026-05-04 00:20 | 30.18826 | -10.04839 | 7985 ft | 297 kts | 69° |
| 2026-05-04 00:20 | 30.19483 | -10.02569 | 7702 ft | 295 kts | 69° |
| 2026-05-04 00:20 | 30.20128 | -10.00344 | 7428 ft | 293 kts | 69° |
| 2026-05-04 00:21 | 30.20775 | -9.98109 | 7156 ft | 291 kts | 69° |
| 2026-05-04 00:21 | 30.21415 | -9.95894 | 6886 ft | 289 kts | 69° |
| 2026-05-04 00:21 | 30.22049 | -9.93696 | 6627 ft | 287 kts | 69° |
| 2026-05-04 00:21 | 30.22673 | -9.91537 | 6348 ft | 285 kts | 69° |
| 2026-05-04 00:22 | 30.23297 | -9.89373 | 6059 ft | 283 kts | 69° |
| 2026-05-04 00:22 | 30.23919 | -9.87212 | 5799 ft | 280 kts | 69° |
| 2026-05-04 00:22 | 30.24526 | -9.85103 | 5542 ft | 277 kts | 69° |
| 2026-05-04 00:22 | 30.25134 | -9.82992 | 5283 ft | 274 kts | 69° |
| 2026-05-04 00:23 | 30.25734 | -9.80906 | 5040 ft | 271 kts | 69° |
| 2026-05-04 00:23 | 30.26321 | -9.78865 | 4790 ft | 269 kts | 69° |
| 2026-05-04 00:23 | 30.26904 | -9.76834 | 4651 ft | 261 kts | 69° |
| 2026-05-04 00:23 | 30.27465 | -9.74875 | 4539 ft | 254 kts | 69° |
| 2026-05-04 00:24 | 30.28016 | -9.72953 | 4429 ft | 246 kts | 69° |
| 2026-05-04 00:24 | 30.28547 | -9.71103 | 4321 ft | 238 kts | 69° |
| 2026-05-04 00:24 | 30.29059 | -9.69314 | 4225 ft | 230 kts | 69° |
| 2026-05-04 00:24 | 30.29558 | -9.67575 | 4014 ft | 228 kts | 70° |
| 2026-05-04 00:25 | 30.30052 | -9.65848 | 3797 ft | 226 kts | 70° |
| 2026-05-04 00:25 | 30.30546 | -9.64124 | 3562 ft | 225 kts | 70° |
| 2026-05-04 00:25 | 30.31039 | -9.62400 | 3346 ft | 224 kts | 70° |
| 2026-05-04 00:25 | 30.31363 | -9.61269 | 3179 ft | 223 kts | 70° |
| 2026-05-04 00:26 | 30.32008 | -9.59010 | 2862 ft | 222 kts | 71° |
| 2026-05-04 00:26 | 30.32334 | -9.57867 | 2713 ft | 221 kts | 71° |
| 2026-05-04 00:26 | 30.32708 | -9.56168 | 2499 ft | 219 kts | 88° |
| 2026-05-04 00:26 | 30.32612 | -9.53802 | 2080 ft | 222 kts | 94° |
| 2026-05-04 00:27 | 30.32564 | -9.52599 | 1876 ft | 220 kts | 93° |
| 2026-05-04 00:27 | 30.32507 | -9.50860 | 1581 ft | 215 kts | 93° |
| 2026-05-04 00:27 | 30.32460 | -9.49166 | 1264 ft | 204 kts | 92° |
| 2026-05-04 00:27 | 30.32420 | -9.47585 | 993 ft | 188 kts | 93° |
| 2026-05-04 00:28 | 30.32384 | -9.46116 | 745 ft | 174 kts | 92° |
| 2026-05-04 00:28 | 30.32352 | -9.44781 | 604 ft | 162 kts | 92° |
| 2026-05-04 00:28 | 30.32331 | -9.43512 | 473 ft | 154 kts | 91° |
| 2026-05-04 00:28 | 30.32290 | -9.42309 | 225 ft | 148 kts | 91° |
| 2026-05-04 00:29 | 30.32265 | -9.41266 | 234 ft | 100 kts | 91° |
| 2026-05-04 00:29 | 30.32249 | -9.40644 | 241 ft | 69 kts | 92° |
| 2026-05-04 00:29 | 30.32237 | -9.40123 | 250 ft | 61 kts | 91° |
| 2026-05-04 00:29 | 30.32226 | -9.39684 | 260 ft | 33 kts | 92° |
| 2026-05-04 00:30 | 30.32266 | -9.39522 | 263 ft | 21 kts | 32° |
| 2026-05-04 00:30 | 30.32380 | -9.39516 | 261 ft | 13 kts | 356° |
| 2026-05-04 00:30 | 30.32390 | -9.39444 | 261 ft | 12 kts | 149° |
| 2026-05-04 00:30 | 30.32346 | -9.39436 | 262 ft | 0 kts | 179° |